Time;durP1;ratioP1;P1;durP2;ratioP2;P2;SDS_P1;SDS_P2;PMS_P1;PMS_P2;Temp;Humidity;BMP_temperature;BMP_pressure;BME280_temperature;BME280_humidity;BME280_pressure;Samples;Min_cycle;Max_cycle;Signal;HPM_P1;HPM_P2
2023/05/28 00:00:08;;;;;;;11.13;4.45;;;16.30;95.80;;;;;;5054485;28;20041;-93
2023/05/28 00:02:34;;;;;;;9.90;4.38;;;16.30;95.90;;;;;;5072204;28;20043;-93
2023/05/28 00:05:00;;;;;;;12.25;4.25;;;16.20;96.00;;;;;;5073865;28;20052;-93
2023/05/28 00:07:28;;;;;;;11.15;4.63;;;16.20;96.00;;;;;;5070872;28;20435;-93
2023/05/28 00:09:55;;;;;;;16.25;5.25;;;16.20;96.10;;;;;;5061004;28;20404;-93
2023/05/28 00:12:21;;;;;;;10.68;4.90;;;16.10;96.10;;;;;;5056716;28;20078;-93
2023/05/28 00:14:47;;;;;;;17.48;5.18;;;16.10;96.10;;;;;;5056986;28;20033;-93
2023/05/28 00:17:13;;;;;;;11.05;4.57;;;16.10;96.10;;;;;;5071222;28;20115;-93
2023/05/28 00:19:39;;;;;;;11.80;4.47;;;16.00;96.20;;;;;;5072976;28;20044;-93
2023/05/28 00:22:05;;;;;;;12.98;4.95;;;16.00;96.40;;;;;;5059035;28;20045;-93
2023/05/28 00:24:30;;;;;;;14.07;4.82;;;16.00;96.30;;;;;;5062987;28;20041;-93
2023/05/28 00:26:56;;;;;;;12.68;4.57;;;15.90;96.40;;;;;;5057182;28;20064;-93
2023/05/28 00:29:21;;;;;;;12.82;5.05;;;15.90;96.50;;;;;;5057532;28;20041;-93
2023/05/28 00:31:47;;;;;;;12.50;4.50;;;15.90;96.50;;;;;;5069773;28;20403;-93
2023/05/28 00:34:13;;;;;;;12.35;4.78;;;15.80;96.50;;;;;;5076837;28;20036;-91
2023/05/28 00:36:38;;;;;;;11.13;4.05;;;15.80;96.50;;;;;;5066917;28;20041;-94
2023/05/28 00:39:04;;;;;;;10.95;4.50;;;15.80;96.20;;;;;;5063129;28;20174;-94
2023/05/28 00:41:31;;;;;;;15.50;4.90;;;15.70;95.90;;;;;;5110249;28;20075;-94
2023/05/28 00:43:57;;;;;;;13.55;4.70;;;15.70;95.90;;;;;;5066042;28;20060;-94
2023/05/28 00:46:23;;;;;;;10.70;4.88;;;15.70;95.80;;;;;;5076184;28;20047;-93
2023/05/28 00:48:50;;;;;;;11.05;4.10;;;15.60;95.90;;;;;;5075817;28;20041;-92
2023/05/28 00:51:16;;;;;;;11.50;4.28;;;15.60;95.90;;;;;;5074441;28;20037;-93
2023/05/28 00:53:42;;;;;;;10.60;4.05;;;15.50;95.80;;;;;;5096437;28;20049;-93
2023/05/28 00:56:12;;;;;;;9.90;4.45;;;15.50;95.80;;;;;;5074786;28;20048;-93
2023/05/28 00:58:43;;;;;;;10.63;4.03;;;15.40;95.80;;;;;;5075003;28;20070;-93
2023/05/28 01:01:12;;;;;;;11.15;4.20;;;15.40;95.70;;;;;;5076679;28;20045;-93
2023/05/28 01:03:38;;;;;;;14.85;4.72;;;15.40;95.80;;;;;;5075078;28;20491;-93
2023/05/28 01:06:11;;;;;;;14.43;5.05;;;15.30;95.40;;;;;;5057659;28;20041;-92
2023/05/28 01:08:40;;;;;;;;;;;15.20;95.40;;;;;;5069033;28;20100;-94
2023/05/28 01:11:09;;;;;;;12.07;4.35;;;15.10;94.80;;;;;;5072227;28;20384;-93
2023/05/28 01:13:35;;;;;;;10.57;4.32;;;15.10;95.80;;;;;;5076290;28;20477;-93
2023/05/28 01:16:01;;;;;;;16.10;4.63;;;15.10;96.20;;;;;;5092273;28;20048;-94
2023/05/28 01:18:27;;;;;;;14.60;4.88;;;15.00;96.00;;;;;;5089025;28;20037;-93
2023/05/28 01:20:53;;;;;;;13.13;4.75;;;15.00;96.20;;;;;;5102596;28;20041;-94
2023/05/28 01:23:22;;;;;;;11.40;4.35;;;15.00;96.40;;;;;;5074960;28;20039;-93
2023/05/28 01:25:52;;;;;;;11.40;4.20;;;15.00;96.20;;;;;;5061229;28;20063;-94
2023/05/28 01:28:19;;;;;;;9.93;4.22;;;14.90;96.30;;;;;;5055177;28;20396;-94
2023/05/28 01:30:45;;;;;;;12.05;4.53;;;14.90;96.20;;;;;;5059146;28;20040;-93
2023/05/28 01:33:12;;;;;;;11.82;4.35;;;14.90;96.20;;;;;;5067368;28;20110;-94
2023/05/28 01:35:39;;;;;;;12.50;4.35;;;14.80;96.10;;;;;;5064334;28;20047;-93
2023/05/28 01:38:06;;;;;;;9.95;4.50;;;14.80;96.30;;;;;;5063231;28;20045;-93
2023/05/28 01:40:33;;;;;;;14.55;5.05;;;14.90;96.50;;;;;;5055836;28;20045;-93
2023/05/28 01:42:59;;;;;;;12.82;4.88;;;14.80;96.60;;;;;;5056229;28;20033;-93
2023/05/28 01:45:26;;;;;;;12.07;4.85;;;14.70;96.60;;;;;;5058471;28;20048;-93
2023/05/28 01:47:53;;;;;;;9.40;4.38;;;14.70;96.70;;;;;;5064726;28;20514;-93
2023/05/28 01:50:19;;;;;;;11.35;4.72;;;14.70;96.50;;;;;;5070539;28;20040;-94
2023/05/28 01:52:45;;;;;;;13.30;4.68;;;14.70;96.80;;;;;;5054726;28;20118;-93
2023/05/28 01:55:14;;;;;;;11.80;4.68;;;14.70;97.00;;;;;;5057736;28;20485;-93
2023/05/28 01:57:40;;;;;;;12.15;4.82;;;14.70;96.90;;;;;;5072575;28;20131;-93
2023/05/28 02:00:07;;;;;;;12.38;4.32;;;14.70;97.00;;;;;;5055966;28;20072;-93
2023/05/28 02:02:34;;;;;;;13.00;5.07;;;14.70;97.00;;;;;;5075234;28;20499;-94
2023/05/28 02:05:00;;;;;;;13.18;4.72;;;14.60;97.10;;;;;;5075222;28;20072;-91
2023/05/28 02:07:26;;;;;;;13.88;4.68;;;14.60;97.10;;;;;;5055685;28;20033;-93
2023/05/28 02:09:52;;;;;;;12.15;4.63;;;14.60;97.00;;;;;;5054699;28;20117;-93
2023/05/28 02:12:18;;;;;;;10.80;4.40;;;14.60;97.10;;;;;;5072622;28;20040;-93
2023/05/28 02:14:44;;;;;;;12.23;5.07;;;14.60;96.90;;;;;;5067947;28;20044;-93
2023/05/28 02:17:10;;;;;;;9.82;4.45;;;14.60;97.00;;;;;;5087674;28;20041;-94
2023/05/28 02:19:36;;;;;;;14.50;5.50;;;14.50;96.90;;;;;;5087518;28;20044;-92
2023/05/28 02:22:09;;;;;;;15.00;5.60;;;14.50;96.40;;;;;;5069368;28;20040;-94
2023/05/28 02:24:35;;;;;;;;;;;14.50;96.20;;;;;;5106574;28;20044;-93
2023/05/28 02:27:03;;;;;;;12.25;4.60;;;14.40;95.80;;;;;;5060828;28;19921;-93
2023/05/28 02:29:29;;;;;;;14.00;4.90;;;14.40;96.60;;;;;;5053767;28;20041;-94
2023/05/28 02:31:54;;;;;;;12.73;4.95;;;14.30;96.70;;;;;;5066729;28;20105;-93
2023/05/28 02:34:20;;;;;;;11.32;4.45;;;14.40;96.90;;;;;;5073029;28;20127;-93
2023/05/28 02:36:46;;;;;;;14.98;5.28;;;14.30;97.10;;;;;;5054065;28;20131;-94
2023/05/28 02:39:11;;;;;;;12.15;4.95;;;14.30;97.10;;;;;;5054184;28;20440;-93
2023/05/28 02:41:37;;;;;;;13.82;5.30;;;14.30;97.20;;;;;;5063157;28;20045;-93
2023/05/28 02:44:02;;;;;;;12.18;4.70;;;14.30;97.20;;;;;;5054753;28;20041;-92
2023/05/28 02:46:28;;;;;;;11.30;4.57;;;14.30;97.20;;;;;;5064711;28;20501;-94
2023/05/28 02:48:54;;;;;;;11.43;4.97;;;14.30;97.10;;;;;;5073203;28;20127;-93
2023/05/28 02:51:19;;;;;;;11.63;4.45;;;14.30;97.10;;;;;;5074472;28;20373;-93
2023/05/28 02:53:45;;;;;;;11.27;4.72;;;14.30;97.10;;;;;;5073161;28;20037;-93
2023/05/28 02:56:11;;;;;;;11.02;4.63;;;14.30;97.20;;;;;;5072023;28;20037;-92
2023/05/28 02:58:37;;;;;;;12.73;4.68;;;14.20;97.20;;;;;;5055648;28;20072;-94
2023/05/28 03:01:03;;;;;;;11.05;4.43;;;14.30;97.20;;;;;;5061308;28;20049;-93
2023/05/28 03:03:29;;;;;;;12.45;4.72;;;14.20;97.20;;;;;;5053568;28;20037;-93
2023/05/28 03:05:54;;;;;;;12.35;4.68;;;14.20;97.20;;;;;;5071700;28;20045;-93
2023/05/28 03:08:20;;;;;;;11.63;4.78;;;14.20;97.10;;;;;;5073349;28;20123;-94
2023/05/28 03:10:46;;;;;;;12.65;4.53;;;14.20;97.10;;;;;;5070234;28;20124;-93
2023/05/28 03:13:12;;;;;;;11.00;4.63;;;14.10;97.10;;;;;;5066207;28;20072;-94
2023/05/28 03:15:37;;;;;;;12.05;4.53;;;14.10;97.10;;;;;;5054881;28;20076;-93
2023/05/28 03:18:06;;;;;;;10.35;4.53;;;14.10;97.10;;;;;;5059339;28;20389;-92
2023/05/28 03:20:32;;;;;;;11.10;4.80;;;14.10;97.10;;;;;;5054398;28;20084;-93
2023/05/28 03:22:58;;;;;;;12.85;4.60;;;14.00;97.10;;;;;;5054381;28;20083;-92
2023/05/28 03:25:25;;;;;;;16.50;5.82;;;14.00;96.80;;;;;;5052683;28;20037;-93
2023/05/28 03:27:52;;;;;;;11.82;4.68;;;13.90;96.60;;;;;;5052854;28;20041;-91
2023/05/28 03:30:18;;;;;;;12.48;5.03;;;13.90;96.90;;;;;;5053182;28;20045;-93
2023/05/28 03:32:43;;;;;;;15.18;5.32;;;13.80;97.10;;;;;;5051527;28;20520;-91
2023/05/28 03:35:09;;;;;;;15.82;4.97;;;13.70;96.80;;;;;;5051932;28;20075;-93
2023/05/28 03:37:35;;;;;;;13.10;4.80;;;13.70;96.70;;;;;;5085146;28;20051;-92
2023/05/28 03:40:01;;;;;;;12.20;4.97;;;13.60;96.90;;;;;;5053505;28;20049;-93
2023/05/28 03:42:27;;;;;;;14.73;5.07;;;13.70;97.20;;;;;;5049066;28;20037;-93
2023/05/28 03:44:53;;;;;;;12.82;4.95;;;13.60;97.30;;;;;;5051857;28;20048;-93
2023/05/28 03:47:18;;;;;;;12.02;5.10;;;13.60;97.50;;;;;;5052526;28;20044;-92
2023/05/28 03:49:44;;;;;;;12.25;4.80;;;13.60;97.60;;;;;;5051908;28;20033;-93
2023/05/28 03:52:10;;;;;;;12.07;5.03;;;13.60;97.70;;;;;;5052972;28;20486;-93
2023/05/28 03:54:36;;;;;;;12.70;4.93;;;13.50;97.70;;;;;;5052681;28;20037;-93
2023/05/28 03:57:01;;;;;;;10.98;4.88;;;13.60;97.60;;;;;;5053465;28;20087;-93
2023/05/28 03:59:27;;;;;;;11.65;4.78;;;13.50;97.60;;;;;;5056625;28;20477;-93
2023/05/28 04:01:52;;;;;;;11.90;4.80;;;13.50;97.70;;;;;;5055808;28;20045;-93
2023/05/28 04:04:18;;;;;;;10.45;4.50;;;13.50;97.70;;;;;;5055551;28;20037;-93
2023/05/28 04:06:44;;;;;;;13.48;5.20;;;13.50;97.60;;;;;;5073375;28;20166;-93
2023/05/28 04:09:10;;;;;;;13.60;4.93;;;13.50;97.70;;;;;;5076316;28;20523;-93
2023/05/28 04:11:37;;;;;;;10.93;4.63;;;13.50;97.80;;;;;;5075288;28;20057;-93
2023/05/28 04:14:03;;;;;;;13.02;4.70;;;13.50;97.70;;;;;;5059490;28;20137;-93
2023/05/28 04:16:29;;;;;;;12.50;4.85;;;13.50;97.80;;;;;;5068064;28;20040;-93
2023/05/28 04:18:55;;;;;;;12.93;4.70;;;13.40;97.80;;;;;;5056566;28;20127;-93
2023/05/28 04:21:21;;;;;;;11.95;4.78;;;13.40;97.80;;;;;;5076465;28;20040;-94
2023/05/28 04:23:47;;;;;;;12.57;4.70;;;13.40;97.80;;;;;;5075294;28;20037;-92
2023/05/28 04:26:14;;;;;;;11.68;4.70;;;13.40;97.80;;;;;;5058070;28;20045;-94
2023/05/28 04:28:40;;;;;;;11.68;4.35;;;13.40;97.70;;;;;;5055910;28;20032;-93
2023/05/28 04:31:06;;;;;;;10.25;4.68;;;13.40;97.60;;;;;;5065249;28;20052;-93
2023/05/28 04:33:32;;;;;;;9.75;3.88;;;13.40;97.60;;;;;;5058231;28;20041;-93
2023/05/28 04:35:59;;;;;;;10.45;4.28;;;13.30;97.50;;;;;;5055660;28;20051;-93
2023/05/28 04:38:31;;;;;;;10.07;4.53;;;13.30;97.70;;;;;;5057399;28;20041;-93
2023/05/28 04:40:57;;;;;;;10.23;4.80;;;13.40;97.50;;;;;;5057355;28;20079;-93
2023/05/28 04:43:23;;;;;;;10.88;4.43;;;13.30;97.50;;;;;;5056873;28;20032;-93
2023/05/28 04:45:49;;;;;;;13.95;4.55;;;13.30;97.70;;;;;;5063749;28;20461;-93
2023/05/28 04:48:15;;;;;;;14.85;5.13;;;13.30;97.60;;;;;;5075684;28;20044;-93
2023/05/28 04:50:41;;;;;;;14.70;5.18;;;13.30;97.50;;;;;;5069936;28;20048;-93
2023/05/28 04:53:07;;;;;;;9.82;4.28;;;13.30;97.50;;;;;;5077139;28;20040;-92
2023/05/28 04:55:32;;;;;;;12.82;4.68;;;13.30;97.70;;;;;;5070727;28;20115;-93
2023/05/28 04:57:58;;;;;;;12.27;4.68;;;13.30;97.80;;;;;;5060999;28;20036;-93
2023/05/28 05:00:26;;;;;;;11.65;4.80;;;13.30;97.70;;;;;;5071055;28;20037;-93
2023/05/28 05:02:52;;;;;;;14.32;4.85;;;13.30;97.80;;;;;;5055650;28;20083;-93
2023/05/28 05:05:18;;;;;;;12.00;4.72;;;13.30;97.90;;;;;;5057016;28;20040;-93
2023/05/28 05:07:45;;;;;;;10.82;4.53;;;13.30;98.00;;;;;;5075502;28;20378;-92
2023/05/28 05:10:11;;;;;;;11.75;5.20;;;13.30;97.90;;;;;;5063759;28;20547;-92
2023/05/28 05:12:37;;;;;;;10.10;4.15;;;13.30;97.90;;;;;;5075278;28;20045;-93
2023/05/28 05:15:05;;;;;;;11.68;4.40;;;13.40;97.80;;;;;;5075709;28;20477;-93
2023/05/28 05:17:31;;;;;;;10.00;4.30;;;13.40;97.50;;;;;;5058355;28;20048;-93
2023/05/28 05:19:57;;;;;;;11.65;4.28;;;13.30;97.40;;;;;;5055861;28;20060;-93
2023/05/28 05:22:23;;;;;;;12.20;4.47;;;13.30;97.30;;;;;;5060943;28;20037;-93
2023/05/28 05:24:49;;;;;;;12.23;4.65;;;13.30;97.70;;;;;;5055408;28;20070;-93
2023/05/28 05:27:15;;;;;;;10.45;4.30;;;13.30;97.40;;;;;;5055967;28;20045;-93
2023/05/28 05:29:41;;;;;;;11.02;4.38;;;13.30;97.40;;;;;;5070555;28;20072;-92
2023/05/28 05:32:06;;;;;;;9.52;3.80;;;13.30;97.30;;;;;;5079266;28;20072;-90
2023/05/28 05:34:32;;;;;;;12.90;4.32;;;13.30;97.20;;;;;;5090169;28;20041;-90
2023/05/28 05:37:01;;;;;;;10.18;4.25;;;13.30;97.00;;;;;;5039140;28;20512;-90
2023/05/28 05:39:27;;;;;;;11.65;4.63;;;13.30;96.90;;;;;;5076716;28;20056;-91
2023/05/28 05:41:53;;;;;;;11.93;4.43;;;13.30;97.20;;;;;;5065844;28;20041;-90
2023/05/28 05:44:18;;;;;;;10.50;4.38;;;13.40;97.10;;;;;;5055971;28;20438;-91
2023/05/28 05:46:44;;;;;;;11.38;4.07;;;13.40;97.20;;;;;;5065156;28;20449;-89
2023/05/28 05:49:10;;;;;;;10.45;3.85;;;13.40;97.10;;;;;;5074568;28;20040;-88
2023/05/28 05:51:36;;;;;;;11.30;4.38;;;13.40;97.40;;;;;;5069385;28;20178;-88
2023/05/28 05:54:04;;;;;;;9.40;4.03;;;13.40;97.20;;;;;;5072055;28;20048;-87
2023/05/28 05:56:30;;;;;;;10.55;4.65;;;13.40;97.40;;;;;;5065147;28;20036;-87
2023/05/28 05:58:58;;;;;;;11.75;4.55;;;13.50;97.40;;;;;;5105409;28;20044;-90
2023/05/28 06:01:24;;;;;;;12.32;4.40;;;13.50;97.40;;;;;;5070694;28;20037;-92
2023/05/28 06:03:50;;;;;;;10.75;4.05;;;13.50;97.50;;;;;;5070035;28;20102;-89
2023/05/28 06:06:16;;;;;;;9.50;4.10;;;13.50;97.50;;;;;;5071024;28;20036;-90
2023/05/28 06:08:42;;;;;;;17.00;5.93;;;13.50;97.60;;;;;;5052575;28;20044;-88
2023/05/28 06:11:08;;;;;;;16.02;4.78;;;13.60;97.60;;;;;;5067249;28;20079;-89
2023/05/28 06:13:35;;;;;;;9.95;3.80;;;13.60;97.50;;;;;;5033072;28;20128;-89
2023/05/28 06:16:02;;;;;;;10.02;3.85;;;13.60;97.50;;;;;;5048358;28;20041;-90
2023/05/28 06:18:29;;;;;;;10.18;4.30;;;13.70;97.60;;;;;;5065649;28;20130;-91
2023/05/28 06:20:55;;;;;;;11.27;4.30;;;13.70;97.70;;;;;;5060280;28;20135;-88
2023/05/28 06:23:21;;;;;;;10.93;4.13;;;13.70;97.70;;;;;;5072901;28;20115;-88
2023/05/28 06:25:47;;;;;;;14.85;4.35;;;13.80;97.70;;;;;;5052693;28;20047;-90
2023/05/28 06:28:13;;;;;;;14.77;5.20;;;13.90;97.70;;;;;;5058546;28;20037;-90
2023/05/28 06:30:39;;;;;;;11.30;4.47;;;13.90;97.60;;;;;;5101076;28;20051;-89
2023/05/28 06:33:05;;;;;;;11.43;4.32;;;14.00;97.50;;;;;;5054999;28;20045;-89
2023/05/28 06:35:31;;;;;;;16.50;5.05;;;14.00;97.60;;;;;;5068607;28;20044;-88
2023/05/28 06:37:57;;;;;;;12.00;3.85;;;14.10;97.60;;;;;;5061143;28;20495;-88
2023/05/28 06:40:22;;;;;;;11.52;4.47;;;14.20;97.60;;;;;;5067096;28;20045;-89
2023/05/28 06:42:48;;;;;;;10.32;4.13;;;14.20;97.40;;;;;;5104137;28;20408;-88
2023/05/28 06:45:14;;;;;;;12.43;4.35;;;14.30;97.40;;;;;;5072329;28;20045;-91
2023/05/28 06:47:40;;;;;;;15.30;5.10;;;14.30;97.30;;;;;;5065118;28;20040;-88
2023/05/28 06:50:05;;;;;;;9.30;4.32;;;14.40;96.80;;;;;;5104782;28;20037;-87
2023/05/28 06:52:31;;;;;;;12.88;4.57;;;14.50;96.90;;;;;;5073244;28;20549;-88
2023/05/28 06:54:57;;;;;;;11.88;4.35;;;14.60;96.90;;;;;;5071204;28;20035;-88
2023/05/28 06:57:22;;;;;;;13.52;4.63;;;14.60;96.80;;;;;;5069510;28;20496;-88
2023/05/28 06:59:48;;;;;;;17.33;5.28;;;14.70;96.60;;;;;;5071184;28;20079;-88
2023/05/28 07:02:14;;;;;;;10.95;4.07;;;14.70;96.30;;;;;;5070433;28;20103;-88
2023/05/28 07:04:40;;;;;;;14.85;4.80;;;14.80;96.40;;;;;;5059723;28;20041;-89
2023/05/28 07:07:06;;;;;;;14.63;5.15;;;14.90;96.20;;;;;;5056456;28;20040;-90
2023/05/28 07:09:32;;;;;;;12.77;5.18;;;14.90;95.80;;;;;;5051470;28;20056;-89
2023/05/28 07:11:57;;;;;;;14.32;4.88;;;15.10;95.70;;;;;;5052880;28;20048;-90
2023/05/28 07:14:23;;;;;;;10.05;4.22;;;15.10;95.50;;;;;;5053482;28;20033;-89
2023/05/28 07:16:49;;;;;;;12.27;4.47;;;15.20;95.80;;;;;;5085746;28;20040;-86
2023/05/28 07:19:15;;;;;;;11.25;4.75;;;15.30;95.80;;;;;;5089674;28;20047;-87
2023/05/28 07:21:40;;;;;;;11.38;4.85;;;15.40;96.00;;;;;;5092148;28;20068;-87
2023/05/28 07:24:06;;;;;;;11.15;4.78;;;15.40;95.70;;;;;;5054743;28;20079;-88
2023/05/28 07:26:35;;;;;;;10.48;4.15;;;15.50;95.50;;;;;;5070795;28;20070;-88
2023/05/28 07:29:00;;;;;;;10.30;4.25;;;15.60;95.90;;;;;;5069818;28;20542;-88
2023/05/28 07:31:28;;;;;;;10.75;4.32;;;15.60;95.60;;;;;;5057354;28;20041;-89
2023/05/28 07:33:53;;;;;;;11.27;5.35;;;15.80;95.70;;;;;;5061007;28;20106;-89
2023/05/28 07:36:19;;;;;;;10.50;4.57;;;15.80;94.80;;;;;;5068282;28;20468;-90
2023/05/28 07:38:45;;;;;;;9.95;4.43;;;15.90;95.00;;;;;;5073687;28;20040;-89
2023/05/28 07:41:10;;;;;;;10.63;5.20;;;16.00;95.20;;;;;;5069596;28;20381;-90
2023/05/28 07:43:36;;;;;;;13.00;5.18;;;16.10;94.80;;;;;;5053086;28;20037;-89
2023/05/28 07:46:01;;;;;;;18.17;6.25;;;16.20;94.70;;;;;;5068211;28;20045;-90
2023/05/28 07:48:27;;;;;;;16.45;5.72;;;16.30;94.60;;;;;;5072037;28;20036;-89
2023/05/28 07:50:53;;;;;;;14.07;5.20;;;16.30;94.20;;;;;;5077193;28;20553;-90
2023/05/28 07:53:18;;;;;;;14.52;5.88;;;16.50;94.30;;;;;;5032372;28;20041;-90
2023/05/28 07:55:45;;;;;;;15.50;5.63;;;16.60;94.80;;;;;;5062807;28;20117;-90
2023/05/28 07:58:12;;;;;;;14.98;5.03;;;16.60;93.90;;;;;;5071120;28;20029;-90
2023/05/28 08:00:41;;;;;;;14.15;5.28;;;16.70;93.70;;;;;;5058616;28;20055;-89
2023/05/28 08:03:07;;;;;;;13.50;5.05;;;16.80;93.90;;;;;;5051740;28;20036;-90
2023/05/28 08:05:32;;;;;;;15.52;5.32;;;16.90;94.20;;;;;;5061686;28;20051;-90
2023/05/28 08:07:59;;;;;;;11.40;5.05;;;16.90;93.90;;;;;;5071879;28;20124;-91
2023/05/28 08:10:25;;;;;;;9.90;4.50;;;17.00;94.20;;;;;;5065810;28;20057;-91
2023/05/28 08:12:50;;;;;;;12.15;5.18;;;17.10;94.50;;;;;;5051516;28;20072;-90
2023/05/28 08:15:16;;;;;;;12.85;5.22;;;17.20;94.10;;;;;;5050957;28;20155;-91
2023/05/28 08:17:42;;;;;;;11.00;5.10;;;17.30;94.00;;;;;;5052676;28;20102;-90
2023/05/28 08:20:11;;;;;;;13.93;5.18;;;17.30;93.80;;;;;;5052912;28;20037;-88
2023/05/28 08:22:37;;;;;;;9.65;4.82;;;17.40;93.00;;;;;;5068386;28;20041;-90
2023/05/28 08:25:03;;;;;;;10.30;4.57;;;17.50;93.60;;;;;;5071824;28;20045;-90
2023/05/28 08:27:30;;;;;;;11.07;4.80;;;17.60;93.60;;;;;;5071466;28;20178;-91
2023/05/28 08:29:56;;;;;;;10.05;4.63;;;17.70;93.80;;;;;;5069764;28;20040;-89
2023/05/28 08:32:22;;;;;;;12.15;5.72;;;17.80;93.90;;;;;;5071722;28;20051;-90
2023/05/28 08:34:47;;;;;;;13.77;5.10;;;17.90;93.20;;;;;;5052896;28;20091;-90
2023/05/28 08:37:13;;;;;;;10.48;5.07;;;17.90;93.00;;;;;;5065409;28;20060;-91
2023/05/28 08:39:39;;;;;;;12.30;4.90;;;18.00;92.20;;;;;;5054758;28;20079;-90
2023/05/28 08:42:05;;;;;;;12.13;5.10;;;18.10;92.20;;;;;;5070774;28;20647;-88
2023/05/28 08:44:31;;;;;;;12.13;4.72;;;18.20;93.00;;;;;;5071641;28;20154;-90
2023/05/28 08:46:57;;;;;;;11.05;5.05;;;18.30;93.30;;;;;;5063934;28;20072;-90
2023/05/28 08:49:31;;;;;;;14.15;5.45;;;18.40;93.10;;;;;;5066452;28;20492;-90
2023/05/28 08:52:01;;;;;;;11.07;4.80;;;18.50;92.10;;;;;;5075082;28;20152;-90
2023/05/28 08:54:28;;;;;;;11.85;4.85;;;18.60;92.10;;;;;;5074664;28;20044;-91
2023/05/28 08:56:54;;;;;;;10.80;4.90;;;18.60;92.00;;;;;;5055055;28;20516;-91
2023/05/28 08:59:21;;;;;;;11.10;5.20;;;18.70;92.70;;;;;;5054994;28;20056;-88
2023/05/28 09:01:47;;;;;;;11.02;5.13;;;18.80;92.30;;;;;;5054039;28;20041;-90
2023/05/28 09:04:12;;;;;;;11.13;5.13;;;18.80;92.30;;;;;;5055082;28;20097;-89
2023/05/28 09:06:38;;;;;;;9.18;4.50;;;18.90;92.60;;;;;;5055494;28;20438;-90
2023/05/28 09:09:07;;;;;;;11.45;5.13;;;19.00;92.10;;;;;;5067269;28;20132;-89
2023/05/28 09:11:34;;;;;;;10.52;4.68;;;19.10;92.20;;;;;;5066255;28;20072;-88
2023/05/28 09:14:10;;;;;;;8.05;4.45;;;19.20;91.70;;;;;;5055344;28;20072;-88
2023/05/28 09:16:36;;;;;;;8.73;4.38;;;19.20;91.20;;;;;;5056613;28;20178;-87
2023/05/28 09:19:04;;;;;;;9.35;4.78;;;19.30;92.00;;;;;;5053943;28;20532;-88
2023/05/28 09:21:29;;;;;;;8.48;4.75;;;19.30;92.20;;;;;;5065567;28;20088;-87
2023/05/28 09:23:55;;;;;;;12.43;5.07;;;19.40;91.80;;;;;;5051432;28;20077;-89
2023/05/28 09:26:21;;;;;;;9.38;4.78;;;19.50;90.80;;;;;;5055712;28;20047;-88
2023/05/28 09:28:49;;;;;;;10.20;4.90;;;19.60;91.50;;;;;;5053143;28;20079;-88
2023/05/28 09:31:15;;;;;;;10.48;4.35;;;19.70;91.50;;;;;;5085611;28;20041;-88
2023/05/28 09:33:47;;;;;;;10.57;4.93;;;19.70;91.90;;;;;;5052649;28;20036;-88
2023/05/28 09:36:18;;;;;;;10.02;5.05;;;19.80;91.90;;;;;;5053659;28;20111;-86
2023/05/28 09:38:44;;;;;;;8.82;4.60;;;19.90;91.40;;;;;;5055118;28;20111;-86
2023/05/28 09:41:23;;;;;;;9.40;4.97;;;19.90;91.40;;;;;;5048157;28;20127;-87
2023/05/28 09:44:00;;;;;;;8.35;4.90;;;20.00;90.70;;;;;;5051795;28;20404;-87
2023/05/28 09:46:31;;;;;;;9.80;4.90;;;20.10;90.60;;;;;;5051715;28;20370;-88
2023/05/28 09:48:57;;;;;;;10.00;4.85;;;20.10;88.20;;;;;;5053963;28;20040;-87
2023/05/28 09:51:29;;;;;;;10.55;5.22;;;20.20;89.70;;;;;;5069834;28;20549;-85
2023/05/28 09:54:00;;;;;;;9.02;4.82;;;20.30;86.10;;;;;;5058211;28;20044;-87
2023/05/28 09:56:31;;;;;;;9.52;5.22;;;20.40;87.30;;;;;;5066509;28;20079;-87
2023/05/28 09:59:02;;;;;;;9.38;5.32;;;20.40;87.10;;;;;;5047141;28;20103;-87
2023/05/28 10:01:35;;;;;;;9.82;5.85;;;20.50;87.50;;;;;;5053006;28;20122;-87
2023/05/28 10:04:13;;;;;;;9.25;5.22;;;20.50;85.40;;;;;;5053456;28;20041;-87
2023/05/28 10:06:43;;;;;;;10.98;5.32;;;20.60;84.60;;;;;;5052608;28;20056;-88
2023/05/28 10:09:12;;;;;;;11.75;5.78;;;20.60;78.80;;;;;;5061436;28;20497;-87
2023/05/28 10:11:47;;;;;;;9.95;5.20;;;20.60;71.20;;;;;;5064384;28;20052;-88
2023/05/28 10:14:13;;;;;;;11.20;5.82;;;20.70;77.80;;;;;;5051316;28;20041;-87
2023/05/28 10:16:39;;;;;;;10.02;5.53;;;20.60;73.70;;;;;;5058071;28;20036;-88
2023/05/28 10:19:05;;;;;;;11.13;5.60;;;20.70;79.80;;;;;;5056077;28;20041;-87
2023/05/28 10:21:31;;;;;;;9.75;5.40;;;20.70;78.70;;;;;;5055608;28;20044;-87
2023/05/28 10:23:57;;;;;;;8.60;5.18;;;20.70;80.10;;;;;;5053592;28;20037;-88
2023/05/28 10:26:24;;;;;;;10.13;5.63;;;20.90;84.10;;;;;;5055924;28;20538;-88
2023/05/28 10:28:55;;;;;;;11.65;5.15;;;20.90;85.20;;;;;;5054291;28;20063;-86
2023/05/28 10:31:22;;;;;;;10.68;5.75;;;21.00;86.90;;;;;;5056444;28;20106;-87
2023/05/28 10:33:47;;;;;;;10.75;5.90;;;21.10;86.80;;;;;;5060116;28;20048;-87
2023/05/28 10:36:14;;;;;;;10.00;5.60;;;21.20;84.20;;;;;;5053049;28;20040;-88
2023/05/28 10:38:53;;;;;;;11.43;5.85;;;21.20;82.30;;;;;;5055851;28;20041;-88
2023/05/28 10:41:22;;;;;;;9.25;6.32;;;21.30;69.00;;;;;;5081249;28;20124;-88
2023/05/28 10:43:50;;;;;;;8.07;5.00;;;21.30;64.10;;;;;;5051936;28;20048;-88
2023/05/28 10:46:25;;;;;;;9.93;5.68;;;21.40;76.80;;;;;;5056406;28;20489;-87
2023/05/28 10:49:12;;;;;;;11.02;5.65;;;21.40;77.00;;;;;;5058247;28;20045;-87
2023/05/28 10:51:57;;;;;;;9.18;5.45;;;21.50;74.90;;;;;;5087200;28;20059;-87
2023/05/28 10:54:29;;;;;;;10.32;5.40;;;21.50;73.10;;;;;;5052710;28;20128;-88
2023/05/28 10:57:19;;;;;;;8.60;5.65;;;21.60;81.90;;;;;;5060754;28;20064;-88
2023/05/28 11:00:06;;;;;;;9.75;5.55;;;21.70;70.70;;;;;;5058027;28;20037;-89
2023/05/28 11:02:35;;;;;;;9.48;5.40;;;21.70;75.70;;;;;;5058525;28;20503;-87
2023/05/28 11:05:03;;;;;;;8.57;5.70;;;21.80;76.90;;;;;;5087342;28;20400;-88
2023/05/28 11:07:36;;;;;;;9.48;5.70;;;21.80;75.20;;;;;;5043315;28;20047;-87
2023/05/28 11:10:14;;;;;;;9.30;5.82;;;21.90;75.70;;;;;;5050903;28;20057;-86
2023/05/28 11:12:41;;;;;;;7.95;5.10;;;21.90;74.60;;;;;;5050551;28;20106;-89
2023/05/28 11:15:09;;;;;;;9.35;6.28;;;21.90;74.90;;;;;;5052344;28;20128;-88
2023/05/28 11:17:47;;;;;;;8.95;5.65;;;22.00;79.50;;;;;;5057891;28;20072;-88
2023/05/28 11:20:27;;;;;;;9.90;6.47;;;22.10;79.70;;;;;;5052586;28;20088;-86
2023/05/28 11:22:54;;;;;;;8.82;5.60;;;22.00;65.00;;;;;;5063022;28;20086;-88
2023/05/28 11:25:21;;;;;;;9.00;5.90;;;22.10;74.10;;;;;;5057273;28;20436;-87
2023/05/28 11:27:48;;;;;;;9.13;5.68;;;22.10;78.40;;;;;;5055627;28;20041;-88
2023/05/28 11:30:16;;;;;;;9.23;5.35;;;22.30;81.80;;;;;;5054458;28;20045;-88
2023/05/28 11:32:42;;;;;;;10.25;5.20;;;22.40;74.20;;;;;;5052153;28;20477;-91
2023/05/28 11:35:12;;;;;;;10.13;5.65;;;22.40;64.90;;;;;;5051040;28;20139;-89
2023/05/28 11:37:40;;;;;;;9.63;5.70;;;22.50;69.80;;;;;;5054454;28;20045;-89
2023/05/28 11:40:10;;;;;;;9.30;5.70;;;22.50;73.70;;;;;;5055071;28;20090;-87
2023/05/28 11:42:37;;;;;;;8.07;5.32;;;22.60;77.50;;;;;;5058503;28;20458;-88
2023/05/28 11:45:04;;;;;;;9.60;5.55;;;22.70;80.90;;;;;;5055937;28;20040;-88
2023/05/28 11:47:34;;;;;;;8.93;5.60;;;22.80;82.90;;;;;;5058231;28;20110;-88
2023/05/28 11:50:07;;;;;;;7.18;4.57;;;22.90;81.20;;;;;;5051147;28;20061;-88
2023/05/28 11:52:32;;;;;;;9.57;4.70;;;22.90;74.90;;;;;;5044481;28;20051;-89
2023/05/28 11:54:58;;;;;;;9.35;5.13;;;22.90;76.60;;;;;;5054471;28;20108;-88
2023/05/28 11:57:33;;;;;;;6.25;4.15;;;23.00;80.40;;;;;;5053403;28;20072;-88
2023/05/28 12:00:00;;;;;;;6.78;3.85;;;23.00;75.40;;;;;;5052056;28;20087;-89
2023/05/28 12:02:26;;;;;;;8.20;4.65;;;23.10;79.10;;;;;;5067461;28;20093;-89
2023/05/28 12:05:01;;;;;;;7.90;3.95;;;23.10;76.00;;;;;;5054968;28;20049;-89
2023/05/28 12:07:32;;;;;;;7.80;4.38;;;23.20;76.00;;;;;;5044445;28;20028;-89
2023/05/28 12:10:09;;;;;;;8.50;4.20;;;23.20;79.50;;;;;;5051596;28;20060;-89
2023/05/28 12:12:43;;;;;;;8.65;3.60;;;23.30;81.60;;;;;;5062294;28;20060;-90
2023/05/28 12:15:09;;;;;;;6.07;3.67;;;23.30;76.40;;;;;;5052581;28;20060;-88
2023/05/28 12:17:40;;;;;;;6.75;3.58;;;23.30;80.60;;;;;;5057907;28;20040;-87
2023/05/28 12:20:12;;;;;;;8.38;3.80;;;23.30;82.10;;;;;;5052839;28;20056;-90
2023/05/28 12:22:41;;;;;;;9.60;3.60;;;23.30;82.50;;;;;;5057864;28;20125;-90
2023/05/28 12:25:07;;;;;;;8.68;3.85;;;23.40;82.50;;;;;;5052216;28;20045;-91
2023/05/28 12:27:34;;;;;;;8.43;3.78;;;23.50;82.60;;;;;;5087314;28;20120;-89
2023/05/28 12:30:00;;;;;;;9.23;3.67;;;23.60;84.00;;;;;;5072561;28;20040;-90
2023/05/28 12:32:25;;;;;;;7.80;3.22;;;23.60;83.60;;;;;;5057424;28;20056;-89
2023/05/28 12:34:53;;;;;;;8.82;3.28;;;23.60;80.70;;;;;;5066269;28;20066;-88
2023/05/28 12:37:19;;;;;;;8.07;3.40;;;23.60;77.00;;;;;;5072464;28;20540;-90
2023/05/28 12:39:45;;;;;;;10.95;3.30;;;23.70;82.90;;;;;;5067128;28;20060;-90